CST,Max TemperatureF,Mean TemperatureF,Min TemperatureF,Max Dew PointF,MeanDew PointF,Min DewpointF,Max Humidity, Mean Humidity, Min Humidity, Max Sea Level PressureIn, Mean Sea Level PressureIn, Min Sea Level PressureIn, Max VisibilityMiles, Mean VisibilityMiles, Min VisibilityMiles, Max Wind SpeedMPH, Mean Wind SpeedMPH, Max Gust SpeedMPH,PrecipitationIn, CloudCover, Events, WindDirDegrees
2013-2-1,5,0,-4,0,-8,-13,78,66,55,30.27,30.20,30.10,10,8,1,14,9,17,0.00,2,Snow,235
2013-2-2,8,4,1,1,-3,-6,85,69,52,30.09,30.06,29.99,10,8,1,13,4,,0.00,5,Snow,328
2013-2-3,17,9,1,9,3,-4,85,69,53,30.01,29.96,29.91,10,8,2,12,4,20,0.00,6,Snow,250
2013-2-4,14,10,5,10,3,-4,86,69,48,29.99,29.94,29.91,10,8,1,12,4,,0.00,4,Snow,10
2013-2-5,28,16,3,21,11,-6,86,74,63,30.08,29.86,29.74,10,9,0,15,8,18,0.00,7,Snow,236
2013-2-6,32,18,5,27,13,0,93,76,59,30.21,30.13,30.06,10,7,0,13,3,,0.00,3,Snow,135
2013-2-7,32,26,21,32,29,19,100,98,80,30.07,30.00,29.91,5,2,0,22,8,31,0.11,8,Snow,51
2013-2-8,23,16,8,18,13,3,92,76,63,30.38,30.28,30.06,10,9,4,22,12,30,0.00,4,,347
2013-2-9,28,16,5,25,18,1,100,86,74,30.38,30.24,30.07,10,6,0,17,7,21,0.00,7,Fog-Snow,157
2013-2-10,41,30,19,41,32,19,100,97,81,30.06,29.69,29.38,10,6,0,32,12,40,0.27,7,Fog-Rain,131
2013-2-11,35,30,26,32,25,18,93,79,64,29.96,29.64,29.39,10,10,10,31,20,41,0.00,8,Rain-Snow,242
2013-2-12,26,24,21,19,16,14,93,74,59,30.06,29.97,29.85,10,10,3,17,10,20,0.00,5,Snow,232
2013-2-13,33,26,19,28,24,19,100,87,69,29.85,29.73,29.67,10,7,2,12,6,,0.00,5,,196
2013-2-14,33,30,26,34,28,19,100,85,64,29.98,29.72,29.55,10,8,1,16,9,24,0.02,8,Rain-Snow,258
2013-2-15,26,19,12,21,6,1,80,59,43,30.18,30.13,30.00,10,10,10,14,8,22,0.00,1,Snow,293
2013-2-16,15,10,5,1,-3,-8,73,56,38,30.17,30.14,30.12,10,10,10,12,5,17,0.00,3,,304
2013-2-17,26,13,0,12,0,-8,78,58,39,30.19,30.10,29.91,10,10,10,18,3,23,0.00,1,,141
2013-2-18,41,34,26,36,25,12,100,73,55,29.91,29.61,29.44,10,8,0,18,13,23,0.18,3,Rain-Snow,170
2013-2-19,24,16,6,23,6,-6,93,71,52,30.13,29.81,29.51,10,5,1,17,13,25,0.00,6,Snow,275
2013-2-20,21,12,3,7,1,-6,73,59,49,30.37,30.29,30.14,10,10,10,13,8,17,0.00,0,,295
2013-2-21,26,17,8,25,13,3,100,81,67,30.42,30.29,30.08,10,9,2,21,8,31,0.00,7,Snow,27
2013-2-22,30,26,23,27,24,19,100,86,80,30.07,29.85,29.77,10,6,0,18,12,28,0.04,8,Snow,145
2013-2-23,28,24,17,23,19,12,86,76,64,29.91,29.85,29.82,10,9,1,15,11,,0.00,7,Snow,234
2013-2-24,32,23,14,21,18,12,100,79,60,30.12,30.05,29.92,10,9,2,8,4,,0.00,2,,188
2013-2-25,37,27,17,25,21,18,100,78,52,30.15,30.11,30.04,10,8,2,6,3,,0.00,4,,92
2013-2-26,32,29,26,30,26,23,100,84,69,30.04,29.80,29.63,10,7,1,26,13,34,0.00,3,Snow,30
2013-2-27,32,30,28,30,29,27,100,92,86,29.77,29.66,29.61,10,4,1,21,17,30,0.00,8,Snow,354
2013-2-28,32,28,23,32,24,16,100,79,64,30.13,29.97,29.77,10,8,2,20,14,28,0.00,8,Snow,354